sensor_id;sensor_type;location;lat;lon;timestamp;pressure;altitude;pressure_sealevel;temperature;humidity
61537;BME280;48695;53.480;-6.300;2024-02-21T00:01:47;100604.84;;;9.71;78.24
61537;BME280;48695;53.480;-6.300;2024-02-21T00:04:12;100590.91;;;9.72;78.29
61537;BME280;48695;53.480;-6.300;2024-02-21T00:06:37;100576.06;;;9.75;78.72
61537;BME280;48695;53.480;-6.300;2024-02-21T00:09:03;100553.41;;;9.77;78.72
61537;BME280;48695;53.480;-6.300;2024-02-21T00:11:28;100523.06;;;9.75;78.17
61537;BME280;48695;53.480;-6.300;2024-02-21T00:13:54;100526.31;;;9.83;78.35
61537;BME280;48695;53.480;-6.300;2024-02-21T00:16:19;100510.69;;;9.83;78.54
61537;BME280;48695;53.480;-6.300;2024-02-21T00:18:45;100510.63;;;9.86;78.68
61537;BME280;48695;53.480;-6.300;2024-02-21T00:21:10;100492.31;;;9.87;78.14
61537;BME280;48695;53.480;-6.300;2024-02-21T00:23:43;100480.97;;;9.90;78.41
61537;BME280;48695;53.480;-6.300;2024-02-21T00:26:08;100480.06;;;9.91;78.04
61537;BME280;48695;53.480;-6.300;2024-02-21T00:28:34;100473.94;;;9.94;78.27
61537;BME280;48695;53.480;-6.300;2024-02-21T00:30:59;100476.50;;;9.95;77.83
61537;BME280;48695;53.480;-6.300;2024-02-21T00:33:24;100464.31;;;9.96;77.72
61537;BME280;48695;53.480;-6.300;2024-02-21T00:35:50;100463.38;;;9.98;77.68
61537;BME280;48695;53.480;-6.300;2024-02-21T00:38:15;100459.91;;;9.99;77.90
61537;BME280;48695;53.480;-6.300;2024-02-21T00:40:41;100458.09;;;10.01;77.63
61537;BME280;48695;53.480;-6.300;2024-02-21T00:43:07;100440.66;;;10.03;77.46
61537;BME280;48695;53.480;-6.300;2024-02-21T00:45:33;100433.72;;;10.04;77.25
61537;BME280;48695;53.480;-6.300;2024-02-21T00:47:58;100416.38;;;10.01;76.83
61537;BME280;48695;53.480;-6.300;2024-02-21T00:50:24;100418.00;;;10.05;77.25
61537;BME280;48695;53.480;-6.300;2024-02-21T00:52:49;100399.69;;;10.07;77.31
61537;BME280;48695;53.480;-6.300;2024-02-21T00:55:15;100390.94;;;10.09;76.99
61537;BME280;48695;53.480;-6.300;2024-02-21T00:57:40;100384.81;;;10.10;77.25
61537;BME280;48695;53.480;-6.300;2024-02-21T01:00:06;100378.72;;;10.11;77.09
61537;BME280;48695;53.480;-6.300;2024-02-21T01:02:33;100385.63;;;10.12;77.47
61537;BME280;48695;53.480;-6.300;2024-02-21T01:04:58;100362.38;;;10.03;77.05
61537;BME280;48695;53.480;-6.300;2024-02-21T01:07:24;100364.63;;;10.17;77.38
61537;BME280;48695;53.480;-6.300;2024-02-21T01:09:50;100364.53;;;10.22;77.02
61537;BME280;48695;53.480;-6.300;2024-02-21T01:12:16;100330.94;;;10.09;77.18
61537;BME280;48695;53.480;-6.300;2024-02-21T01:14:42;100345.34;;;10.23;77.02
61537;BME280;48695;53.480;-6.300;2024-02-21T01:17:07;100337.31;;;10.32;76.98
61537;BME280;48695;53.480;-6.300;2024-02-21T01:19:33;100308.03;;;10.21;77.54
61537;BME280;48695;53.480;-6.300;2024-02-21T01:21:58;100315.34;;;10.39;77.03
61537;BME280;48695;53.480;-6.300;2024-02-21T01:24:23;100309.16;;;10.43;77.45
61537;BME280;48695;53.480;-6.300;2024-02-21T01:26:49;100303.84;;;10.46;76.73
61537;BME280;48695;53.480;-6.300;2024-02-21T01:29:15;100294.19;;;10.50;77.60
61537;BME280;48695;53.480;-6.300;2024-02-21T01:31:40;100281.84;;;10.55;77.05
61537;BME280;48695;53.480;-6.300;2024-02-21T01:34:06;100260.84;;;10.58;77.24
61537;BME280;48695;53.480;-6.300;2024-02-21T01:36:31;100263.34;;;10.62;77.50
61537;BME280;48695;53.480;-6.300;2024-02-21T01:38:56;100249.28;;;10.67;77.68
61537;BME280;48695;53.480;-6.300;2024-02-21T01:41:22;100237.88;;;10.71;77.66
61537;BME280;48695;53.480;-6.300;2024-02-21T01:43:47;100230.94;;;10.70;77.31
61537;BME280;48695;53.480;-6.300;2024-02-21T01:46:13;100226.31;;;10.78;77.29
61537;BME280;48695;53.480;-6.300;2024-02-21T01:48:38;100213.19;;;10.79;77.29
61537;BME280;48695;53.480;-6.300;2024-02-21T01:51:04;100208.75;;;10.83;77.16
61537;BME280;48695;53.480;-6.300;2024-02-21T01:53:32;100192.97;;;10.86;77.13
61537;BME280;48695;53.480;-6.300;2024-02-21T01:56:00;100189.47;;;10.87;77.11
61537;BME280;48695;53.480;-6.300;2024-02-21T01:58:27;100161.53;;;10.89;77.44
61537;BME280;48695;53.480;-6.300;2024-02-21T02:00:54;100146.75;;;10.88;76.77
61537;BME280;48695;53.480;-6.300;2024-02-21T02:03:21;100124.78;;;10.95;77.93
61537;BME280;48695;53.480;-6.300;2024-02-21T02:05:48;100117.03;;;10.92;76.87
61537;BME280;48695;53.480;-6.300;2024-02-21T02:08:14;100096.91;;;10.94;77.07
61537;BME280;48695;53.480;-6.300;2024-02-21T02:10:41;100091.75;;;10.93;77.22
61537;BME280;48695;53.480;-6.300;2024-02-21T02:13:07;100081.31;;;10.93;76.80
61537;BME280;48695;53.480;-6.300;2024-02-21T02:18:07;100055.28;;;10.89;76.88
61537;BME280;48695;53.480;-6.300;2024-02-21T02:20:32;100050.03;;;10.91;76.82
61537;BME280;48695;53.480;-6.300;2024-02-21T02:25:32;100023.06;;;10.89;76.64
61537;BME280;48695;53.480;-6.300;2024-02-21T02:27:58;100010.38;;;10.80;77.71
61537;BME280;48695;53.480;-6.300;2024-02-21T02:30:23;100026.53;;;10.89;77.45
61537;BME280;48695;53.480;-6.300;2024-02-21T02:32:48;100010.94;;;10.88;77.32
61537;BME280;48695;53.480;-6.300;2024-02-21T02:35:14;100008.31;;;10.88;77.10
61537;BME280;48695;53.480;-6.300;2024-02-21T02:37:39;99996.16;;;10.87;77.24
61537;BME280;48695;53.480;-6.300;2024-02-21T02:40:08;99990.94;;;10.87;77.59
61537;BME280;48695;53.480;-6.300;2024-02-21T02:42:33;99970.22;;;10.82;77.66
61537;BME280;48695;53.480;-6.300;2024-02-21T02:44:59;99959.81;;;10.81;77.41
61537;BME280;48695;53.480;-6.300;2024-02-21T02:47:24;99963.22;;;10.83;77.83
61537;BME280;48695;53.480;-6.300;2024-02-21T02:49:50;99907.63;;;10.56;77.83
61537;BME280;48695;53.480;-6.300;2024-02-21T02:52:19;99925.91;;;10.79;77.69
61537;BME280;48695;53.480;-6.300;2024-02-21T02:54:45;99924.34;;;10.75;78.11
61537;BME280;48695;53.480;-6.300;2024-02-21T02:57:10;99916.53;;;10.74;78.36
61537;BME280;48695;53.480;-6.300;2024-02-21T02:59:36;99890.56;;;10.71;78.17
61537;BME280;48695;53.480;-6.300;2024-02-21T03:02:01;99879.28;;;10.69;78.56
61537;BME280;48695;53.480;-6.300;2024-02-21T03:04:27;99863.69;;;10.67;78.69
61537;BME280;48695;53.480;-6.300;2024-02-21T03:06:53;99851.63;;;10.64;78.42
61537;BME280;48695;53.480;-6.300;2024-02-21T03:09:18;99844.66;;;10.63;78.60
61537;BME280;48695;53.480;-6.300;2024-02-21T03:11:44;99829.00;;;10.63;78.99
61537;BME280;48695;53.480;-6.300;2024-02-21T03:14:10;99817.78;;;10.61;79.14
61537;BME280;48695;53.480;-6.300;2024-02-21T03:16:36;99806.50;;;10.61;79.25
61537;BME280;48695;53.480;-6.300;2024-02-21T03:19:01;99794.34;;;10.60;79.02
61537;BME280;48695;53.480;-6.300;2024-02-21T03:21:26;99777.84;;;10.59;79.15
61537;BME280;48695;53.480;-6.300;2024-02-21T03:23:52;99770.00;;;10.59;79.08
61537;BME280;48695;53.480;-6.300;2024-02-21T03:26:17;99736.56;;;10.46;79.11
61537;BME280;48695;53.480;-6.300;2024-02-21T03:28:43;99728.22;;;10.59;79.40
61537;BME280;48695;53.480;-6.300;2024-02-21T03:31:11;99716.97;;;10.57;79.41
61537;BME280;48695;53.480;-6.300;2024-02-21T03:33:39;99699.63;;;10.56;79.41
61537;BME280;48695;53.480;-6.300;2024-02-21T03:36:05;99703.16;;;10.55;79.23
61537;BME280;48695;53.480;-6.300;2024-02-21T03:38:30;99709.31;;;10.53;79.57
61537;BME280;48695;53.480;-6.300;2024-02-21T03:40:56;99701.44;;;10.54;79.58
61537;BME280;48695;53.480;-6.300;2024-02-21T03:43:21;99685.78;;;10.54;79.85
61537;BME280;48695;53.480;-6.300;2024-02-21T03:45:47;99676.19;;;10.55;79.55
61537;BME280;48695;53.480;-6.300;2024-02-21T03:48:12;99665.75;;;10.55;79.69
61537;BME280;48695;53.480;-6.300;2024-02-21T03:50:38;99644.13;;;10.51;79.24
61537;BME280;48695;53.480;-6.300;2024-02-21T04:31:57;99429.34;;;10.49;79.74
61537;BME280;48695;53.480;-6.300;2024-02-21T04:34:22;99429.84;;;10.57;79.81
61537;BME280;48695;53.480;-6.300;2024-02-21T04:36:48;99421.94;;;10.59;79.91
61537;BME280;48695;53.480;-6.300;2024-02-21T04:39:13;99420.13;;;10.61;80.03
61537;BME280;48695;53.480;-6.300;2024-02-21T04:41:38;99400.91;;;10.62;79.83
61537;BME280;48695;53.480;-6.300;2024-02-21T04:44:04;99395.56;;;10.65;80.02
61537;BME280;48695;53.480;-6.300;2024-02-21T04:46:29;99391.19;;;10.65;80.28
61537;BME280;48695;53.480;-6.300;2024-02-21T04:48:55;99368.47;;;10.68;80.29
61537;BME280;48695;53.480;-6.300;2024-02-21T04:51:21;99361.44;;;10.70;80.37
61537;BME280;48695;53.480;-6.300;2024-02-21T04:53:47;99350.84;;;10.73;80.11
61537;BME280;48695;53.480;-6.300;2024-02-21T04:56:12;99335.97;;;10.75;80.33
61537;BME280;48695;53.480;-6.300;2024-02-21T04:58:38;99323.69;;;10.77;80.24
61537;BME280;48695;53.480;-6.300;2024-02-21T05:01:04;99307.94;;;10.78;80.46
61537;BME280;48695;53.480;-6.300;2024-02-21T05:03:30;99299.19;;;10.79;80.52
61537;BME280;48695;53.480;-6.300;2024-02-21T05:05:56;99290.28;;;10.83;80.09
61537;BME280;48695;53.480;-6.300;2024-02-21T05:08:21;99271.97;;;10.85;80.33
61537;BME280;48695;53.480;-6.300;2024-02-21T05:10:46;99261.34;;;10.88;80.08
61537;BME280;48695;53.480;-6.300;2024-02-21T05:13:12;99259.66;;;10.87;80.32
61537;BME280;48695;53.480;-6.300;2024-02-21T05:15:37;99250.78;;;10.91;80.56
61537;BME280;48695;53.480;-6.300;2024-02-21T05:18:03;99239.41;;;10.92;80.51
61537;BME280;48695;53.480;-6.300;2024-02-21T05:20:28;99234.94;;;10.94;80.54
61537;BME280;48695;53.480;-6.300;2024-02-21T05:22:54;99223.59;;;10.95;80.56
61537;BME280;48695;53.480;-6.300;2024-02-21T05:25:19;99219.13;;;10.97;80.62
61537;BME280;48695;53.480;-6.300;2024-02-21T05:27:44;99204.22;;;10.99;80.59
61537;BME280;48695;53.480;-6.300;2024-02-21T05:30:11;99182.88;;;10.91;80.50
61537;BME280;48695;53.480;-6.300;2024-02-21T05:32:37;99192.88;;;11.00;80.60
61537;BME280;48695;53.480;-6.300;2024-02-21T05:35:02;99183.94;;;11.04;80.50
61537;BME280;48695;53.480;-6.300;2024-02-21T05:37:28;99160.91;;;10.95;80.69
61537;BME280;48695;53.480;-6.300;2024-02-21T05:39:54;99169.81;;;11.08;80.60
61537;BME280;48695;53.480;-6.300;2024-02-21T05:42:19;99163.63;;;11.11;80.84
61537;BME280;48695;53.480;-6.300;2024-02-21T05:44:44;99142.63;;;11.12;80.64
61537;BME280;48695;53.480;-6.300;2024-02-21T05:47:10;99127.72;;;11.14;81.12
61537;BME280;48695;53.480;-6.300;2024-02-21T05:49:37;99110.13;;;11.18;80.80
61537;BME280;48695;53.480;-6.300;2024-02-21T05:52:03;99097.06;;;11.18;81.01
61537;BME280;48695;53.480;-6.300;2024-02-21T05:54:28;99093.38;;;11.22;81.01
61537;BME280;48695;53.480;-6.300;2024-02-21T05:56:54;99090.69;;;11.24;80.74
61537;BME280;48695;53.480;-6.300;2024-02-21T05:59:19;99085.31;;;11.27;80.85
61537;BME280;48695;53.480;-6.300;2024-02-21T06:01:45;99068.69;;;11.28;80.75
61537;BME280;48695;53.480;-6.300;2024-02-21T06:04:10;99058.09;;;11.31;81.11
61537;BME280;48695;53.480;-6.300;2024-02-21T07:31:51;98756.31;;;12.69;80.15
61537;BME280;48695;53.480;-6.300;2024-02-21T07:34:17;98751.06;;;12.69;80.27
61537;BME280;48695;53.480;-6.300;2024-02-21T07:36:42;98743.03;;;12.72;80.32
61537;BME280;48695;53.480;-6.300;2024-02-21T07:39:09;98728.06;;;12.75;80.08
61537;BME280;48695;53.480;-6.300;2024-02-21T07:41:35;98732.34;;;12.76;79.94
61537;BME280;48695;53.480;-6.300;2024-02-21T07:44:00;98711.22;;;12.79;79.84
61537;BME280;48695;53.480;-6.300;2024-02-21T07:46:25;98697.19;;;12.80;80.30
61537;BME280;48695;53.480;-6.300;2024-02-21T07:48:51;98706.53;;;12.84;79.94
61537;BME280;48695;53.480;-6.300;2024-02-21T07:51:16;98707.25;;;12.86;79.78
61537;BME280;48695;53.480;-6.300;2024-02-21T07:53:44;98679.19;;;12.88;79.96
61537;BME280;48695;53.480;-6.300;2024-02-21T07:56:11;98686.00;;;12.90;80.09
61537;BME280;48695;53.480;-6.300;2024-02-21T07:58:37;98693.75;;;12.92;80.28
61537;BME280;48695;53.480;-6.300;2024-02-21T08:01:02;98696.31;;;12.93;79.97
61537;BME280;48695;53.480;-6.300;2024-02-21T08:03:27;98684.59;;;12.99;80.04
61537;BME280;48695;53.480;-6.300;2024-02-21T08:05:53;98681.03;;;13.00;79.96
61537;BME280;48695;53.480;-6.300;2024-02-21T08:08:18;98668.66;;;13.02;79.90
61537;BME280;48695;53.480;-6.300;2024-02-21T08:10:46;98660.06;;;13.00;79.69
61537;BME280;48695;53.480;-6.300;2024-02-21T08:13:11;98659.75;;;13.05;79.81
61537;BME280;48695;53.480;-6.300;2024-02-21T08:15:37;98649.94;;;13.08;80.12
61537;BME280;48695;53.480;-6.300;2024-02-21T08:18:05;98655.91;;;13.10;80.02
61537;BME280;48695;53.480;-6.300;2024-02-21T08:20:30;98640.91;;;13.12;79.80
61537;BME280;48695;53.480;-6.300;2024-02-21T08:22:55;98627.78;;;13.12;79.89
61537;BME280;48695;53.480;-6.300;2024-02-21T08:25:21;98630.13;;;13.17;80.04
61537;BME280;48695;53.480;-6.300;2024-02-21T08:27:46;98626.56;;;13.18;79.64
61537;BME280;48695;53.480;-6.300;2024-02-21T08:30:12;98628.97;;;13.21;80.07
61537;BME280;48695;53.480;-6.300;2024-02-21T08:39:03;98598.09;;;13.26;79.80
61537;BME280;48695;53.480;-6.300;2024-02-21T08:41:32;98589.91;;;13.31;79.48
61537;BME280;48695;53.480;-6.300;2024-02-21T08:43:58;98586.56;;;13.29;79.69
61537;BME280;48695;53.480;-6.300;2024-02-21T08:46:24;98575.13;;;13.30;79.83
61537;BME280;48695;53.480;-6.300;2024-02-21T08:48:50;98568.75;;;13.34;79.62
61537;BME280;48695;53.480;-6.300;2024-02-21T08:51:17;98580.91;;;13.35;79.48
61537;BME280;48695;53.480;-6.300;2024-02-21T08:53:43;98562.22;;;13.27;79.77
61537;BME280;48695;53.480;-6.300;2024-02-21T08:56:09;98575.97;;;13.43;79.96
61537;BME280;48695;53.480;-6.300;2024-02-21T08:58:35;98587.19;;;13.45;80.01
61537;BME280;48695;53.480;-6.300;2024-02-21T09:01:02;98558.06;;;13.49;80.09
61537;BME280;48695;53.480;-6.300;2024-02-21T09:03:31;98556.16;;;13.52;79.86
61537;BME280;48695;53.480;-6.300;2024-02-21T09:05:56;98546.06;;;13.58;79.97
61537;BME280;48695;53.480;-6.300;2024-02-21T09:08:22;98550.16;;;13.62;80.01
61537;BME280;48695;53.480;-6.300;2024-02-21T09:10:47;98542.28;;;13.62;79.65
61537;BME280;48695;53.480;-6.300;2024-02-21T09:13:13;98554.25;;;13.66;79.60
61537;BME280;48695;53.480;-6.300;2024-02-21T09:15:38;98543.56;;;13.69;79.84
61537;BME280;48695;53.480;-6.300;2024-02-21T09:18:04;98532.03;;;13.59;79.77
61537;BME280;48695;53.480;-6.300;2024-02-21T09:20:29;98553.38;;;13.79;79.59
61537;BME280;48695;53.480;-6.300;2024-02-21T09:22:55;98546.69;;;13.74;79.41
61537;BME280;48695;53.480;-6.300;2024-02-21T09:25:20;98566.59;;;13.90;79.52
61537;BME280;48695;53.480;-6.300;2024-02-21T09:27:45;98570.16;;;13.89;79.49
61537;BME280;48695;53.480;-6.300;2024-02-21T09:30:11;98568.06;;;13.94;79.24
61537;BME280;48695;53.480;-6.300;2024-02-21T09:32:38;98571.22;;;13.99;79.42
61537;BME280;48695;53.480;-6.300;2024-02-21T09:35:04;98552.59;;;14.02;79.21
61537;BME280;48695;53.480;-6.300;2024-02-21T09:37:31;98550.72;;;14.04;79.38
61537;BME280;48695;53.480;-6.300;2024-02-21T09:39:56;98541.28;;;14.01;79.33
61537;BME280;48695;53.480;-6.300;2024-02-21T09:42:39;98563.34;;;14.23;79.71
61537;BME280;48695;53.480;-6.300;2024-02-21T09:45:08;98553.88;;;14.33;79.49
61537;BME280;48695;53.480;-6.300;2024-02-21T09:47:44;98570.63;;;14.43;79.74
61537;BME280;48695;53.480;-6.300;2024-02-21T09:50:15;98562.47;;;14.48;79.07
61537;BME280;48695;53.480;-6.300;2024-02-21T09:52:43;98551.50;;;14.54;78.89
61537;BME280;48695;53.480;-6.300;2024-02-21T09:55:09;98556.53;;;14.57;78.84
61537;BME280;48695;53.480;-6.300;2024-02-21T09:57:38;98554.63;;;14.59;78.90
61537;BME280;48695;53.480;-6.300;2024-02-21T10:00:04;98547.00;;;14.56;78.86
61537;BME280;48695;53.480;-6.300;2024-02-21T10:02:33;98541.50;;;14.59;78.80
61537;BME280;48695;53.480;-6.300;2024-02-21T10:04:59;98549.38;;;14.59;78.98
61537;BME280;48695;53.480;-6.300;2024-02-21T10:07:24;98561.56;;;14.60;79.14
61537;BME280;48695;53.480;-6.300;2024-02-21T10:10:03;98552.50;;;14.64;79.02
61537;BME280;48695;53.480;-6.300;2024-02-21T10:12:28;98550.81;;;14.63;78.76
61537;BME280;48695;53.480;-6.300;2024-02-21T10:15:04;98567.09;;;14.68;78.81
61537;BME280;48695;53.480;-6.300;2024-02-21T10:17:32;98571.50;;;14.68;78.95
61537;BME280;48695;53.480;-6.300;2024-02-21T10:20:09;98564.84;;;14.75;79.12
61537;BME280;48695;53.480;-6.300;2024-02-21T10:22:35;98548.25;;;14.74;79.30
61537;BME280;48695;53.480;-6.300;2024-02-21T10:25:12;98527.72;;;14.79;79.22
61537;BME280;48695;53.480;-6.300;2024-02-21T10:27:40;98526.31;;;14.87;79.36
61537;BME280;48695;53.480;-6.300;2024-02-21T10:30:13;98561.19;;;14.89;79.15
61537;BME280;48695;53.480;-6.300;2024-02-21T10:32:51;98561.81;;;14.92;78.81
61537;BME280;48695;53.480;-6.300;2024-02-21T10:35:28;98565.28;;;14.93;78.82
61537;BME280;48695;53.480;-6.300;2024-02-21T10:37:55;98596.09;;;14.91;79.06
61537;BME280;48695;53.480;-6.300;2024-02-21T10:40:25;98595.84;;;14.94;78.97
61537;BME280;48695;53.480;-6.300;2024-02-21T10:42:59;98613.09;;;14.98;79.19
61537;BME280;48695;53.480;-6.300;2024-02-21T10:45:35;98617.50;;;14.97;78.85
61537;BME280;48695;53.480;-6.300;2024-02-21T10:48:22;98622.53;;;15.00;78.90
61537;BME280;48695;53.480;-6.300;2024-02-21T10:50:57;98612.25;;;14.97;78.74
61537;BME280;48695;53.480;-6.300;2024-02-21T10:58:45;98621.91;;;14.97;78.89
61537;BME280;48695;53.480;-6.300;2024-02-21T11:01:12;98624.66;;;14.95;78.91
61537;BME280;48695;53.480;-6.300;2024-02-21T11:03:41;98643.78;;;14.97;79.13
61537;BME280;48695;53.480;-6.300;2024-02-21T11:06:10;98627.13;;;14.86;79.18
61537;BME280;48695;53.480;-6.300;2024-02-21T11:08:35;98650.38;;;15.03;78.70
61537;BME280;48695;53.480;-6.300;2024-02-21T11:11:01;98654.28;;;14.97;78.82
61537;BME280;48695;53.480;-6.300;2024-02-21T11:13:35;98648.31;;;14.95;78.67
61537;BME280;48695;53.480;-6.300;2024-02-21T11:16:08;98645.91;;;14.92;78.84
61537;BME280;48695;53.480;-6.300;2024-02-21T11:18:35;98664.81;;;14.97;78.73
61537;BME280;48695;53.480;-6.300;2024-02-21T11:21:00;98663.50;;;15.03;78.89
61537;BME280;48695;53.480;-6.300;2024-02-21T11:23:26;98658.72;;;14.97;78.76
61537;BME280;48695;53.480;-6.300;2024-02-21T11:25:52;98675.50;;;15.07;78.56
61537;BME280;48695;53.480;-6.300;2024-02-21T11:28:25;98677.16;;;15.08;77.97
61537;BME280;48695;53.480;-6.300;2024-02-21T11:30:50;98654.28;;;14.97;77.40
61537;BME280;48695;53.480;-6.300;2024-02-21T11:33:16;98682.13;;;15.00;77.72
61537;BME280;48695;53.480;-6.300;2024-02-21T11:35:42;98666.72;;;14.95;78.27
61537;BME280;48695;53.480;-6.300;2024-02-21T11:38:16;98675.94;;;15.01;78.25
61537;BME280;48695;53.480;-6.300;2024-02-21T11:40:46;98677.94;;;14.97;77.64
61537;BME280;48695;53.480;-6.300;2024-02-21T11:43:12;98677.56;;;14.91;77.83
61537;BME280;48695;53.480;-6.300;2024-02-21T11:45:37;98669.91;;;14.88;78.29
61537;BME280;48695;53.480;-6.300;2024-02-21T11:48:05;98694.72;;;14.84;77.90
61537;BME280;48695;53.480;-6.300;2024-02-21T11:50:31;98667.41;;;14.73;77.75
61537;BME280;48695;53.480;-6.300;2024-02-21T11:52:57;98690.94;;;14.75;78.28
61537;BME280;48695;53.480;-6.300;2024-02-21T11:55:23;98688.22;;;14.76;78.48
61537;BME280;48695;53.480;-6.300;2024-02-21T11:57:48;98678.44;;;14.78;78.61
61537;BME280;48695;53.480;-6.300;2024-02-21T12:00:18;98677.66;;;14.89;79.49
61537;BME280;48695;53.480;-6.300;2024-02-21T12:02:47;98681.41;;;14.98;79.37
61537;BME280;48695;53.480;-6.300;2024-02-21T12:05:13;98660.19;;;15.01;79.38
61537;BME280;48695;53.480;-6.300;2024-02-21T12:07:39;98671.16;;;15.30;79.20
61537;BME280;48695;53.480;-6.300;2024-02-21T12:10:12;98686.94;;;15.65;79.55
61537;BME280;48695;53.480;-6.300;2024-02-21T12:12:38;98679.81;;;15.90;79.16
61537;BME280;48695;53.480;-6.300;2024-02-21T12:15:05;98687.75;;;16.23;78.41
61537;BME280;48695;53.480;-6.300;2024-02-21T12:17:35;98715.03;;;16.56;77.61
61537;BME280;48695;53.480;-6.300;2024-02-21T12:20:05;98712.88;;;16.83;77.12
61537;BME280;48695;53.480;-6.300;2024-02-21T12:22:31;98694.13;;;16.98;76.39
61537;BME280;48695;53.480;-6.300;2024-02-21T12:24:58;98705.47;;;17.42;75.88
61537;BME280;48695;53.480;-6.300;2024-02-21T12:27:23;98702.22;;;17.70;75.26
61537;BME280;48695;53.480;-6.300;2024-02-21T12:29:50;98688.75;;;17.84;74.50
61537;BME280;48695;53.480;-6.300;2024-02-21T12:32:15;98696.53;;;18.17;74.24
61537;BME280;48695;53.480;-6.300;2024-02-21T12:34:41;98678.41;;;18.33;72.73
61537;BME280;48695;53.480;-6.300;2024-02-21T12:37:06;98683.75;;;18.52;73.11
61537;BME280;48695;53.480;-6.300;2024-02-21T12:39:32;98688.00;;;18.74;71.76
61537;BME280;48695;53.480;-6.300;2024-02-21T12:41:58;98696.09;;;18.82;71.00
61537;BME280;48695;53.480;-6.300;2024-02-21T12:44:23;98708.41;;;19.03;70.96
61537;BME280;48695;53.480;-6.300;2024-02-21T12:46:49;98712.31;;;19.18;71.17
61537;BME280;48695;53.480;-6.300;2024-02-21T12:49:18;98715.53;;;19.31;71.01
61537;BME280;48695;53.480;-6.300;2024-02-21T12:51:43;98719.56;;;19.35;70.29
61537;BME280;48695;53.480;-6.300;2024-02-21T12:54:09;98722.91;;;19.47;70.62
61537;BME280;48695;53.480;-6.300;2024-02-21T12:56:36;98732.00;;;19.64;70.36
61537;BME280;48695;53.480;-6.300;2024-02-21T12:59:02;98705.06;;;19.59;69.63
61537;BME280;48695;53.480;-6.300;2024-02-21T13:01:27;98729.03;;;19.86;69.13
61537;BME280;48695;53.480;-6.300;2024-02-21T13:03:53;98718.44;;;19.86;68.84
61537;BME280;48695;53.480;-6.300;2024-02-21T13:06:19;98743.81;;;19.99;67.20
61537;BME280;48695;53.480;-6.300;2024-02-21T13:08:44;98730.72;;;19.87;68.83
61537;BME280;48695;53.480;-6.300;2024-02-21T13:11:12;98754.09;;;20.11;68.30
61537;BME280;48695;53.480;-6.300;2024-02-21T13:13:37;98731.53;;;19.98;68.67
61537;BME280;48695;53.480;-6.300;2024-02-21T13:16:03;98770.53;;;20.25;70.19
61537;BME280;48695;53.480;-6.300;2024-02-21T13:18:29;98756.44;;;20.24;66.84
61537;BME280;48695;53.480;-6.300;2024-02-21T13:20:54;98794.81;;;20.20;67.88
61537;BME280;48695;53.480;-6.300;2024-02-21T13:23:20;98785.88;;;20.02;66.67
61537;BME280;48695;53.480;-6.300;2024-02-21T13:25:48;98800.69;;;19.75;65.71
61537;BME280;48695;53.480;-6.300;2024-02-21T13:28:14;98812.34;;;19.43;66.01
61537;BME280;48695;53.480;-6.300;2024-02-21T13:30:41;98805.59;;;19.10;66.92
61537;BME280;48695;53.480;-6.300;2024-02-21T13:33:07;98791.28;;;18.73;69.02
61537;BME280;48695;53.480;-6.300;2024-02-21T13:35:33;98806.56;;;18.69;70.65
61537;BME280;48695;53.480;-6.300;2024-02-21T13:37:58;98795.66;;;18.62;70.04
61537;BME280;48695;53.480;-6.300;2024-02-21T13:40:23;98800.09;;;18.62;70.77
61537;BME280;48695;53.480;-6.300;2024-02-21T13:42:50;98791.97;;;18.54;71.27
61537;BME280;48695;53.480;-6.300;2024-02-21T13:45:16;98803.81;;;18.71;71.39
61537;BME280;48695;53.480;-6.300;2024-02-21T13:47:42;98810.81;;;18.81;70.82
61537;BME280;48695;53.480;-6.300;2024-02-21T13:50:07;98802.91;;;18.91;70.16
61537;BME280;48695;53.480;-6.300;2024-02-21T13:52:37;98794.28;;;18.99;69.42
61537;BME280;48695;53.480;-6.300;2024-02-21T13:55:03;98812.00;;;19.08;69.02
61537;BME280;48695;53.480;-6.300;2024-02-21T13:57:28;98785.53;;;19.08;70.43
61537;BME280;48695;53.480;-6.300;2024-02-21T13:59:54;98798.41;;;19.32;69.08
61537;BME280;48695;53.480;-6.300;2024-02-21T14:02:20;98790.34;;;19.43;69.91
61537;BME280;48695;53.480;-6.300;2024-02-21T14:04:46;98799.28;;;19.52;68.90
61537;BME280;48695;53.480;-6.300;2024-02-21T14:07:12;98787.88;;;19.61;69.23
61537;BME280;48695;53.480;-6.300;2024-02-21T14:09:37;98796.53;;;19.63;66.71
61537;BME280;48695;53.480;-6.300;2024-02-21T14:12:03;98787.03;;;19.60;64.71
61537;BME280;48695;53.480;-6.300;2024-02-21T14:14:33;98799.53;;;19.49;66.76
61537;BME280;48695;53.480;-6.300;2024-02-21T14:16:59;98802.59;;;19.34;65.20
61537;BME280;48695;53.480;-6.300;2024-02-21T14:19:25;98805.91;;;19.17;66.48
61537;BME280;48695;53.480;-6.300;2024-02-21T14:21:50;98807.75;;;18.86;65.99
61537;BME280;48695;53.480;-6.300;2024-02-21T14:24:16;98809.91;;;18.71;67.68
61537;BME280;48695;53.480;-6.300;2024-02-21T14:26:41;98830.41;;;18.58;68.15
61537;BME280;48695;53.480;-6.300;2024-02-21T14:29:07;98820.91;;;18.46;68.47
61537;BME280;48695;53.480;-6.300;2024-02-21T14:31:32;98822.38;;;18.38;67.78
61537;BME280;48695;53.480;-6.300;2024-02-21T14:33:58;98826.50;;;18.31;67.46
61537;BME280;48695;53.480;-6.300;2024-02-21T14:36:23;98824.88;;;18.19;67.86
61537;BME280;48695;53.480;-6.300;2024-02-21T14:38:52;98834.53;;;18.09;65.93
61537;BME280;48695;53.480;-6.300;2024-02-21T14:41:18;98830.06;;;18.00;66.76
61537;BME280;48695;53.480;-6.300;2024-02-21T14:43:43;98837.06;;;17.89;67.08
61537;BME280;48695;53.480;-6.300;2024-02-21T14:46:09;98834.91;;;17.83;68.27
61537;BME280;48695;53.480;-6.300;2024-02-21T14:48:34;98829.38;;;17.86;70.68
61537;BME280;48695;53.480;-6.300;2024-02-21T14:51:01;98830.28;;;17.97;68.92
61537;BME280;48695;53.480;-6.300;2024-02-21T14:53:27;98832.03;;;18.07;69.00
61537;BME280;48695;53.480;-6.300;2024-02-21T14:55:52;98832.63;;;18.11;68.26
61537;BME280;48695;53.480;-6.300;2024-02-21T14:58:17;98841.25;;;18.13;67.08
61537;BME280;48695;53.480;-6.300;2024-02-21T15:00:45;98830.97;;;18.10;66.67
61537;BME280;48695;53.480;-6.300;2024-02-21T15:03:12;98847.44;;;18.02;66.85
61537;BME280;48695;53.480;-6.300;2024-02-21T15:05:40;98843.88;;;17.92;66.33